createdAt,value
2019-04-07T00:01:09.228Z,9.27
2019-04-07T00:06:13.479Z,9.40
2019-04-07T00:11:17.509Z,9.43
2019-04-07T00:16:21.535Z,10.17
2019-04-07T00:21:25.422Z,7.93
2019-04-07T00:26:29.188Z,9.83
2019-04-07T00:31:32.950Z,8.90
2019-04-07T00:36:37.809Z,8.13
2019-04-07T00:41:41.808Z,9.80
2019-04-07T00:46:45.728Z,8.67
2019-04-07T00:51:51.372Z,8.90
2019-04-07T00:56:55.644Z,9.10
2019-04-07T01:02:00.307Z,9.33
2019-04-07T01:07:04.813Z,10.10
2019-04-07T01:12:09.382Z,8.50
2019-04-07T01:17:13.729Z,8.80
2019-04-07T01:22:17.747Z,9.07
2019-04-07T01:27:21.491Z,9.40
2019-04-07T01:32:25.713Z,9.13
2019-04-07T01:37:29.580Z,9.30
2019-04-07T01:42:48.820Z,8.57
2019-04-07T01:48:02.924Z,8.17
2019-04-07T01:53:14.834Z,7.83
2019-04-07T01:58:27.921Z,7.93
2019-04-07T02:03:57.268Z,8.73
2019-04-07T02:09:11.064Z,8.43
2019-04-07T02:14:32.901Z,8.30
2019-04-07T02:19:47.085Z,7.47
2019-04-07T02:24:59.172Z,7.60
2019-04-07T02:30:13.015Z,8.63
2019-04-07T02:35:36.473Z,8.40
2019-04-07T02:41:01.827Z,8.30
2019-04-07T02:46:27.190Z,7.93
2019-04-07T02:51:40.377Z,8.87
2019-04-07T02:57:15.855Z,8.33
2019-04-07T03:02:49.694Z,8.43
2019-04-07T03:08:12.018Z,8.03
2019-04-07T03:13:26.151Z,8.53
2019-04-07T03:18:39.291Z,8.60
2019-04-07T03:23:58.571Z,8.57
2019-04-07T03:29:27.685Z,7.93
2019-04-07T03:34:38.740Z,8.17
2019-04-07T03:40:13.910Z,8.37
2019-04-07T03:45:43.621Z,8.40
2019-04-07T03:50:56.898Z,8.00
2019-04-07T03:56:20.173Z,7.87
2019-04-07T04:01:46.241Z,8.43
2019-04-07T04:07:30.671Z,7.63
2019-04-07T04:12:30.632Z,8.47
2019-04-07T04:17:34.742Z,7.90
2019-04-07T04:22:39.559Z,7.57
2019-04-07T04:27:44.262Z,8.33
2019-04-07T04:32:47.978Z,7.80
2019-04-07T04:37:53.507Z,7.90
2019-04-07T04:42:58.081Z,8.13
2019-04-07T04:48:02.775Z,8.00
2019-04-07T04:53:06.798Z,8.87
2019-04-07T04:58:11.215Z,9.07
2019-04-07T05:03:15.972Z,9.10
2019-04-07T05:08:20.493Z,9.20
2019-04-07T05:13:25.049Z,8.80
2019-04-07T05:18:29.005Z,8.80
2019-04-07T05:23:33.325Z,8.60
2019-04-07T05:28:38.004Z,9.40
2019-04-07T05:33:42.060Z,9.50
2019-04-07T05:38:46.710Z,8.50
2019-04-07T05:43:53.524Z,9.10
2019-04-07T05:48:56.664Z,9.40
2019-04-07T05:54:00.595Z,10.50
2019-04-07T05:59:04.339Z,9.47
2019-04-07T06:04:08.829Z,9.60
2019-04-07T06:09:13.616Z,9.77
2019-04-07T06:14:17.546Z,9.90
2019-04-07T06:19:21.561Z,10.67
2019-04-07T06:24:30.121Z,10.67
2019-04-07T06:29:30.987Z,10.10
2019-04-07T06:34:34.909Z,10.20
2019-04-07T06:39:39.094Z,10.33
2019-04-07T06:44:43.525Z,11.73
2019-04-07T06:50:15.498Z,11.10
2019-04-07T06:55:39.501Z,9.33
2019-04-07T07:01:05.835Z,9.70
2019-04-07T07:06:34.690Z,9.90
2019-04-07T07:12:01.652Z,10.80
2019-04-07T07:17:40.270Z,11.77
2019-04-07T07:22:48.699Z,10.17
2019-04-07T07:27:53.383Z,11.43
2019-04-07T07:32:57.460Z,11.90
2019-04-07T07:38:01.242Z,10.90
2019-04-07T07:43:27.749Z,13.03
2019-04-07T07:48:30.259Z,12.50
2019-04-07T07:53:34.399Z,15.77
2019-04-07T07:58:39.556Z,18.20
2019-04-07T08:03:44.201Z,16.10
2019-04-07T08:08:48.567Z,15.57
2019-04-07T08:13:52.563Z,14.27
2019-04-07T08:18:59.193Z,12.47
2019-04-07T08:24:02.508Z,13.57
2019-04-07T08:29:07.738Z,12.90
2019-04-07T08:34:12.104Z,12.83
2019-04-07T08:39:22.836Z,12.03
2019-04-07T08:44:21.587Z,12.07
2019-04-07T08:49:25.637Z,11.53
2019-04-07T08:54:29.774Z,11.67
2019-04-07T08:59:33.591Z,12.77
2019-04-07T09:04:37.609Z,11.67
2019-04-07T09:09:46.568Z,10.83
2019-04-07T09:14:46.762Z,11.30
2019-04-07T09:20:10.656Z,12.40
2019-04-07T09:25:40.012Z,10.73
2019-04-07T09:31:13.327Z,10.73
2019-04-07T09:36:36.464Z,11.20
2019-04-07T09:41:52.707Z,12.10
2019-04-07T09:47:16.458Z,11.27
2019-04-07T09:52:49.184Z,11.30
2019-04-07T09:58:09.281Z,10.70
2019-04-07T10:03:27.945Z,9.93
2019-04-07T10:08:47.768Z,11.50
2019-04-07T10:14:08.721Z,10.13
2019-04-07T10:19:30.536Z,10.80
2019-04-07T10:24:58.591Z,9.90
2019-04-07T10:30:11.739Z,10.23
2019-04-07T10:35:33.537Z,9.17
2019-04-07T10:40:43.884Z,9.53
2019-04-07T10:46:02.903Z,10.10
2019-04-07T10:51:20.592Z,10.23
2019-04-07T10:56:42.847Z,9.53
2019-04-07T11:02:07.025Z,9.47
2019-04-07T11:07:40.418Z,10.30
2019-04-07T11:13:03.492Z,9.77
2019-04-07T11:18:41.711Z,9.93
2019-04-07T11:23:59.936Z,8.67
2019-04-07T11:29:17.670Z,9.47
2019-04-07T11:34:29.332Z,9.80
2019-04-07T11:39:52.366Z,8.83
2019-04-07T11:45:03.831Z,9.40
2019-04-07T11:50:16.980Z,9.00
2019-04-07T11:55:33.323Z,10.20
2019-04-07T12:00:59.552Z,8.97
2019-04-07T12:06:13.595Z,8.60
2019-04-07T12:11:23.418Z,8.40
2019-04-07T12:16:45.950Z,9.10
2019-04-07T12:22:13.175Z,8.40
2019-04-07T12:27:31.470Z,8.43
2019-04-07T12:33:09.888Z,8.90
2019-04-07T12:38:41.281Z,8.33
2019-04-07T12:44:02.734Z,8.40
2019-04-07T12:49:15.610Z,7.93
2019-04-07T12:54:43.667Z,8.83
2019-04-07T13:00:07.081Z,9.43
2019-04-07T13:05:36.710Z,8.97
2019-04-07T13:10:51.246Z,8.03
2019-04-07T13:16:21.013Z,8.60
2019-04-07T13:21:29.279Z,7.73
2019-04-07T13:26:46.286Z,7.60
2019-04-07T13:32:01.385Z,7.80
2019-04-07T13:37:14.573Z,8.07
2019-04-07T13:42:42.889Z,8.00
2019-04-07T13:47:58.806Z,7.57
2019-04-07T13:53:19.132Z,8.17
2019-04-07T13:58:39.119Z,7.70
2019-04-07T14:04:10.512Z,7.57
2019-04-07T14:09:34.150Z,8.10
2019-04-07T14:14:55.970Z,7.37
2019-04-07T14:20:22.539Z,8.20
2019-04-07T14:25:36.367Z,7.47
2019-04-07T14:30:56.444Z,8.13
2019-04-07T14:36:18.074Z,8.70
2019-04-07T14:41:32.212Z,8.30
2019-04-07T14:47:10.838Z,8.53
2019-04-07T14:52:32.912Z,8.17
2019-04-07T14:57:46.518Z,7.40
2019-04-07T15:02:50.993Z,7.87
2019-04-07T15:08:20.466Z,8.37
2019-04-07T15:13:28.223Z,7.97
2019-04-07T15:18:33.887Z,7.77
2019-04-07T15:23:37.972Z,8.40
2019-04-07T15:28:41.924Z,7.93
2019-04-07T15:33:46.588Z,8.20
2019-04-07T15:38:50.652Z,7.93
2019-04-07T15:43:55.227Z,8.67
2019-04-07T15:49:00.430Z,8.47
2019-04-07T15:54:04.136Z,7.70
2019-04-07T15:59:10.144Z,7.87
2019-04-07T16:04:18.688Z,8.47
2019-04-07T16:09:36.072Z,8.97
2019-04-07T16:14:31.013Z,8.40
2019-04-07T16:19:41.552Z,7.90
2019-04-07T16:24:41.646Z,9.43
2019-04-07T16:29:46.092Z,8.67
2019-04-07T16:34:50.770Z,7.47
2019-04-07T16:39:54.589Z,11.50
2019-04-07T16:45:00.306Z,9.83
2019-04-07T16:50:04.448Z,12.57
2019-04-07T16:55:29.104Z,10.83
2019-04-07T17:00:32.942Z,11.00
2019-04-07T17:05:37.476Z,10.27
2019-04-07T17:10:41.494Z,9.33
2019-04-07T17:15:45.621Z,9.40
2019-04-07T17:20:50.658Z,9.00
2019-04-07T17:25:54.765Z,7.80
2019-04-07T17:30:59.356Z,7.77
2019-04-07T17:36:03.981Z,7.63
2019-04-07T17:41:09.111Z,7.30
2019-04-07T17:46:34.113Z,7.80
2019-04-07T17:51:47.445Z,7.27
2019-04-07T17:57:05.458Z,8.00
2019-04-07T18:02:34.940Z,7.43
2019-04-07T18:07:56.542Z,8.00
2019-04-07T18:13:15.432Z,7.80
2019-04-07T18:18:38.677Z,7.13
2019-04-07T18:23:56.597Z,8.27
2019-04-07T18:29:29.674Z,6.80
2019-04-07T18:34:51.681Z,8.80
2019-04-07T18:40:19.954Z,8.00
2019-04-07T18:46:01.275Z,7.50
2019-04-07T18:51:41.287Z,7.93
2019-04-07T18:56:59.857Z,8.57
2019-04-07T19:02:37.983Z,8.10
2019-04-07T19:08:00.860Z,8.47
2019-04-07T19:13:33.579Z,8.40
2019-04-07T19:18:56.241Z,9.33
2019-04-07T19:24:18.411Z,10.87
2019-04-07T19:29:44.906Z,10.03
2019-04-07T19:35:13.363Z,11.10
2019-04-07T19:40:51.596Z,8.97
2019-04-07T19:46:04.943Z,9.40
2019-04-07T19:51:37.217Z,9.70
2019-04-07T19:56:48.723Z,9.63
2019-04-07T20:02:11.997Z,7.80
2019-04-07T20:07:21.050Z,8.10
2019-04-07T20:12:41.295Z,7.87
2019-04-07T20:17:55.184Z,7.77
2019-04-07T20:23:29.598Z,8.10
2019-04-07T20:28:45.085Z,7.73
2019-04-07T20:33:55.744Z,7.70
2019-04-07T20:39:21.776Z,7.60
2019-04-07T20:45:06.614Z,8.37
2019-04-07T20:50:31.289Z,7.57
2019-04-07T20:55:58.166Z,8.07
2019-04-07T21:01:24.373Z,7.93
2019-04-07T21:06:52.904Z,6.90
2019-04-07T21:12:17.331Z,7.80
2019-04-07T21:17:31.618Z,8.33
2019-04-07T21:22:44.081Z,8.57
2019-04-07T21:27:52.738Z,9.03
2019-04-07T21:33:11.843Z,8.40
2019-04-07T21:38:34.890Z,7.53
2019-04-07T21:43:58.214Z,8.10
2019-04-07T21:49:23.315Z,8.90
2019-04-07T21:55:01.614Z,8.53
2019-04-07T22:00:30.970Z,8.13
2019-04-07T22:05:49.894Z,7.87
2019-04-07T22:10:53.753Z,7.73
2019-04-07T22:16:01.535Z,7.40
2019-04-07T22:21:03.359Z,7.30
2019-04-07T22:26:12.664Z,7.83
2019-04-07T22:31:15.928Z,7.77
2019-04-07T22:36:20.212Z,8.27
2019-04-07T22:41:25.028Z,8.20
2019-04-07T22:46:29.261Z,7.63
2019-04-07T22:51:32.921Z,7.93
2019-04-07T22:56:38.322Z,7.90
2019-04-07T23:01:43.057Z,8.33
2019-04-07T23:06:46.935Z,8.20
2019-04-07T23:11:50.671Z,7.93
2019-04-07T23:16:54.505Z,8.13
2019-04-07T23:21:58.328Z,7.90
2019-04-07T23:27:02.307Z,7.60
2019-04-07T23:32:05.948Z,8.17
2019-04-07T23:37:13.271Z,7.43
2019-04-07T23:42:17.014Z,7.63
2019-04-07T23:47:21.550Z,8.10
2019-04-07T23:52:25.394Z,8.27
2019-04-07T23:57:29.594Z,7.40
